createdAt,value
2018-12-10T00:00:30.738Z,445
2018-12-10T00:01:37.940Z,445
2018-12-10T00:02:46.725Z,444
2018-12-10T00:03:53.931Z,445
2018-12-10T00:05:01.155Z,444
2018-12-10T00:06:08.358Z,445
2018-12-10T00:07:15.285Z,442
2018-12-10T00:08:22.222Z,443
2018-12-10T00:09:29.422Z,444
2018-12-10T00:10:42.521Z,443
2018-12-10T00:11:49.745Z,443
2018-12-10T00:12:56.943Z,439
2018-12-10T00:14:04.159Z,439
2018-12-10T00:15:11.364Z,436
2018-12-10T00:16:18.582Z,435
2018-12-10T00:17:25.522Z,434
2018-12-10T00:18:32.729Z,432
2018-12-10T00:19:39.928Z,429
2018-12-10T00:20:47.141Z,430
2018-12-10T00:21:54.352Z,430
2018-12-10T00:23:01.563Z,428
2018-12-10T00:24:08.766Z,429
2018-12-10T00:25:15.701Z,428
2018-12-10T00:26:22.627Z,428
2018-12-10T00:27:29.850Z,429
2018-12-10T00:28:37.042Z,429
2018-12-10T00:29:43.999Z,429
2018-12-10T00:30:51.191Z,429
2018-12-10T00:31:58.137Z,428
2018-12-10T00:33:05.337Z,429
2018-12-10T00:34:12.553Z,429
2018-12-10T00:35:19.755Z,429
2018-12-10T00:36:28.875Z,428
2018-12-10T00:37:36.074Z,427
2018-12-10T00:38:42.731Z,427
2018-12-10T00:39:49.933Z,427
2018-12-10T00:40:56.873Z,426
2018-12-10T00:42:04.078Z,427
2018-12-10T00:43:11.031Z,425
2018-12-10T00:44:18.229Z,427
2018-12-10T00:45:25.450Z,425
2018-12-10T00:46:32.651Z,427
2018-12-10T00:47:39.866Z,427
2018-12-10T00:48:47.063Z,428
2018-12-10T00:49:54.274Z,428
2018-12-10T00:51:01.585Z,428
2018-12-10T00:52:08.789Z,428
2018-12-10T00:53:15.989Z,428
2018-12-10T00:54:23.202Z,430
2018-12-10T00:55:30.260Z,428
2018-12-10T00:56:37.471Z,429
2018-12-10T00:57:44.665Z,430
2018-12-10T00:58:51.604Z,428
2018-12-10T00:59:58.800Z,427
2018-12-10T01:01:06.033Z,428
2018-12-10T01:02:13.234Z,428
2018-12-10T01:03:20.454Z,429
2018-12-10T01:04:27.661Z,429
2018-12-10T01:05:34.880Z,428
2018-12-10T01:06:42.084Z,428
2018-12-10T01:07:49.300Z,428
2018-12-10T01:08:56.499Z,429
2018-12-10T01:10:03.715Z,428
2018-12-10T01:11:10.912Z,428
2018-12-10T01:12:18.133Z,427
2018-12-10T01:13:25.028Z,426
2018-12-10T01:14:32.249Z,427
2018-12-10T01:15:39.452Z,428
2018-12-10T01:16:46.685Z,428
2018-12-10T01:17:53.883Z,427
2018-12-10T01:19:01.097Z,428
2018-12-10T01:20:08.392Z,428
2018-12-10T01:21:15.612Z,427
2018-12-10T01:22:22.815Z,427
2018-12-10T01:23:29.758Z,428
2018-12-10T01:24:36.964Z,428
2018-12-10T01:25:43.886Z,427
2018-12-10T01:26:51.094Z,428
2018-12-10T01:27:58.048Z,428
2018-12-10T01:29:05.252Z,428
2018-12-10T01:30:11.922Z,428
2018-12-10T01:31:18.854Z,429
2018-12-10T01:32:26.060Z,427
2018-12-10T01:33:33.263Z,427
2018-12-10T01:34:40.460Z,427
2018-12-10T01:35:47.662Z,426
2018-12-10T01:36:54.607Z,426
2018-12-10T01:38:01.575Z,426
2018-12-10T01:39:08.501Z,426
2018-12-10T01:40:15.427Z,426
2018-12-10T01:41:22.643Z,427
2018-12-10T01:42:29.846Z,427
2018-12-10T01:43:36.781Z,426
2018-12-10T01:44:43.981Z,425
2018-12-10T01:45:51.194Z,425
2018-12-10T01:46:58.418Z,426
2018-12-10T01:48:05.618Z,427
2018-12-10T01:49:12.550Z,426
2018-12-10T01:50:19.758Z,426
2018-12-10T01:51:26.961Z,425
2018-12-10T01:52:33.888Z,426
2018-12-10T01:53:41.091Z,426
2018-12-10T01:54:48.035Z,424
2018-12-10T01:55:55.232Z,425
2018-12-10T01:57:02.180Z,424
2018-12-10T01:58:09.443Z,425
2018-12-10T01:59:16.645Z,424
2018-12-10T02:00:23.843Z,424
2018-12-10T02:01:30.795Z,424
2018-12-10T02:02:37.995Z,424
2018-12-10T02:03:45.226Z,424
2018-12-10T02:04:52.150Z,425
2018-12-10T02:05:59.373Z,424
2018-12-10T02:07:06.298Z,424
2018-12-10T02:08:13.515Z,426
2018-12-10T02:09:20.719Z,425
2018-12-10T02:10:27.935Z,424
2018-12-10T02:11:35.134Z,425
2018-12-10T02:12:42.154Z,424
2018-12-10T02:13:49.350Z,434
2018-12-10T02:14:56.582Z,432
2018-12-10T02:16:03.778Z,434
2018-12-10T02:17:10.716Z,435
2018-12-10T02:18:17.912Z,438
2018-12-10T02:19:24.852Z,442
2018-12-10T02:20:32.050Z,440
2018-12-10T02:21:38.986Z,438
2018-12-10T02:22:46.188Z,439
2018-12-10T02:23:53.408Z,439
2018-12-10T02:25:00.610Z,440
2018-12-10T02:26:07.556Z,439
2018-12-10T02:27:14.754Z,438
2018-12-10T02:28:21.968Z,437
2018-12-10T02:29:29.169Z,434
2018-12-10T02:30:36.387Z,432
2018-12-10T02:31:43.587Z,431
2018-12-10T02:32:50.526Z,429
2018-12-10T02:33:57.726Z,426
2018-12-10T02:35:04.667Z,426
2018-12-10T02:36:11.862Z,423
2018-12-10T02:37:19.081Z,424
2018-12-10T02:38:26.286Z,423
2018-12-10T02:39:33.497Z,425
2018-12-10T02:40:40.697Z,424
2018-12-10T02:41:47.908Z,424
2018-12-10T02:42:54.832Z,424
2018-12-10T02:44:02.042Z,424
2018-12-10T02:45:09.176Z,424
2018-12-10T02:46:16.123Z,425
2018-12-10T02:47:23.328Z,424
2018-12-10T02:48:30.544Z,423
2018-12-10T02:49:37.764Z,423
2018-12-10T02:50:44.970Z,425
2018-12-10T02:51:52.174Z,424
2018-12-10T02:52:59.335Z,423
2018-12-10T02:54:06.538Z,423
2018-12-10T02:55:13.751Z,424
2018-12-10T02:56:20.951Z,423
2018-12-10T02:57:28.165Z,423
2018-12-10T02:58:35.372Z,424
2018-12-10T02:59:42.311Z,423
2018-12-10T03:00:49.252Z,424
2018-12-10T03:01:56.446Z,424
2018-12-10T03:03:03.643Z,424
2018-12-10T03:04:10.854Z,423
2018-12-10T03:05:17.920Z,424
2018-12-10T03:06:25.155Z,424
2018-12-10T03:07:32.341Z,425
2018-12-10T03:08:39.568Z,425
2018-12-10T03:09:46.766Z,425
2018-12-10T03:10:53.957Z,423
2018-12-10T03:12:01.155Z,425
2018-12-10T03:13:08.376Z,424
2018-12-10T03:14:15.580Z,424
2018-12-10T03:15:22.515Z,425
2018-12-10T03:16:29.716Z,424
2018-12-10T03:17:36.928Z,424
2018-12-10T03:18:44.129Z,424
2018-12-10T03:19:51.448Z,424
2018-12-10T03:20:58.635Z,423
2018-12-10T03:22:05.493Z,424
2018-12-10T03:23:12.691Z,424
2018-12-10T03:24:20.026Z,425
2018-12-10T03:25:27.259Z,424
2018-12-10T03:26:34.474Z,423
2018-12-10T03:27:41.399Z,425
2018-12-10T03:28:48.351Z,424
2018-12-10T03:29:55.551Z,423
2018-12-10T03:31:02.773Z,424
2018-12-10T03:32:09.972Z,424
2018-12-10T03:33:17.199Z,424
2018-12-10T03:34:24.409Z,424
2018-12-10T03:35:31.463Z,423
2018-12-10T03:36:38.665Z,423
2018-12-10T03:37:45.873Z,424
2018-12-10T03:38:53.079Z,424
2018-12-10T03:40:00.299Z,424
2018-12-10T03:41:07.497Z,423
2018-12-10T03:42:14.722Z,424
2018-12-10T03:43:21.909Z,424
2018-12-10T03:44:28.849Z,423
2018-12-10T03:45:36.048Z,423
2018-12-10T03:46:42.985Z,423
2018-12-10T03:47:50.297Z,423
2018-12-10T03:48:57.509Z,424
2018-12-10T03:50:04.702Z,424
2018-12-10T03:51:11.919Z,423
2018-12-10T03:52:19.128Z,422
2018-12-10T03:53:25.773Z,422
2018-12-10T03:54:32.974Z,424
2018-12-10T03:55:39.916Z,424
2018-12-10T03:56:46.844Z,424
2018-12-10T03:57:54.065Z,424
2018-12-10T03:59:01.263Z,424
2018-12-10T04:00:08.481Z,423
2018-12-10T04:01:15.692Z,424
2018-12-10T04:02:22.640Z,424
2018-12-10T04:03:29.850Z,423
2018-12-10T04:04:37.073Z,425
2018-12-10T04:05:44.007Z,424
2018-12-10T04:06:51.217Z,423
2018-12-10T04:07:58.417Z,424
2018-12-10T04:09:05.683Z,424
2018-12-10T04:10:12.884Z,423
2018-12-10T04:11:20.099Z,424
2018-12-10T04:12:27.296Z,424
2018-12-10T04:13:34.510Z,424
2018-12-10T04:14:41.710Z,424
2018-12-10T04:15:48.929Z,423
2018-12-10T04:16:56.131Z,423
2018-12-10T04:18:03.083Z,425
2018-12-10T04:19:10.021Z,425
2018-12-10T04:20:16.994Z,424
2018-12-10T04:21:24.198Z,424
2018-12-10T04:22:31.138Z,423
2018-12-10T04:23:38.337Z,423
2018-12-10T04:24:46.478Z,424
2018-12-10T04:25:53.677Z,424
2018-12-10T04:27:00.611Z,423
2018-12-10T04:28:07.813Z,423
2018-12-10T04:29:15.101Z,422
2018-12-10T04:30:22.302Z,422
2018-12-10T04:31:29.235Z,423
2018-12-10T04:32:36.437Z,423
2018-12-10T04:33:43.650Z,423
2018-12-10T04:34:50.575Z,423
2018-12-10T04:35:57.800Z,422
2018-12-10T04:37:04.713Z,423
2018-12-10T04:38:11.912Z,423
2018-12-10T04:39:18.847Z,423
2018-12-10T04:40:26.064Z,422
2018-12-10T04:41:33.269Z,421
2018-12-10T04:42:40.485Z,422
2018-12-10T04:43:47.704Z,423
2018-12-10T04:44:54.641Z,423
2018-12-10T04:46:01.847Z,423
2018-12-10T04:47:09.046Z,424
2018-12-10T04:48:16.325Z,423
2018-12-10T04:49:23.536Z,423
2018-12-10T04:50:30.458Z,423
2018-12-10T04:51:37.670Z,423
2018-12-10T04:52:44.866Z,423
2018-12-10T04:53:52.078Z,423
2018-12-10T04:54:58.792Z,423
2018-12-10T04:56:05.993Z,423
2018-12-10T04:57:12.915Z,422
2018-12-10T04:58:20.130Z,423
2018-12-10T04:59:27.074Z,422
2018-12-10T05:00:34.282Z,422
2018-12-10T05:01:41.480Z,422
2018-12-10T05:02:48.695Z,423
2018-12-10T05:03:55.896Z,422
2018-12-10T05:05:03.096Z,423
2018-12-10T05:06:10.391Z,424
2018-12-10T05:07:17.592Z,424
2018-12-10T05:08:24.798Z,424
2018-12-10T05:09:31.709Z,424
2018-12-10T05:10:38.353Z,423
2018-12-10T05:11:45.291Z,422
2018-12-10T05:12:52.498Z,421
2018-12-10T05:13:59.158Z,421
2018-12-10T05:15:06.090Z,423
2018-12-10T05:16:13.026Z,422
2018-12-10T05:17:20.229Z,422
2018-12-10T05:18:27.177Z,422
2018-12-10T05:19:34.099Z,421
2018-12-10T05:20:41.045Z,421
2018-12-10T05:21:48.245Z,422
2018-12-10T05:22:55.463Z,421
2018-12-10T05:24:02.663Z,421
2018-12-10T05:25:09.875Z,420
2018-12-10T05:26:17.075Z,421
2018-12-10T05:27:24.287Z,420
2018-12-10T05:28:31.486Z,419
2018-12-10T05:29:38.424Z,421
2018-12-10T05:30:45.626Z,421
2018-12-10T05:31:52.842Z,421
2018-12-10T05:33:00.046Z,421
2018-12-10T05:34:06.992Z,421
2018-12-10T05:35:14.193Z,421
2018-12-10T05:36:21.133Z,421
2018-12-10T05:37:28.059Z,421
2018-12-10T05:38:35.269Z,421
2018-12-10T05:39:42.217Z,421
2018-12-10T05:40:49.424Z,421
2018-12-10T05:41:56.639Z,421
2018-12-10T05:43:03.839Z,421
2018-12-10T05:44:11.043Z,422
2018-12-10T05:45:17.986Z,420
2018-12-10T05:46:25.200Z,421
2018-12-10T05:47:32.209Z,422
2018-12-10T05:48:39.399Z,423
2018-12-10T05:49:46.629Z,423
2018-12-10T05:50:53.813Z,422
2018-12-10T05:52:00.774Z,421
2018-12-10T05:53:07.980Z,423
2018-12-10T05:54:15.196Z,421
2018-12-10T05:55:22.394Z,421
2018-12-10T05:56:29.607Z,419
2018-12-10T05:57:36.813Z,419
2018-12-10T05:58:43.753Z,420
2018-12-10T05:59:50.970Z,420
2018-12-10T06:00:57.905Z,420
2018-12-10T06:02:05.103Z,418
2018-12-10T06:03:12.093Z,418
2018-12-10T06:04:18.757Z,417
2018-12-10T06:05:25.962Z,417
2018-12-10T06:06:32.887Z,416
2018-12-10T06:07:40.098Z,418
2018-12-10T06:08:47.298Z,418
2018-12-10T06:09:54.504Z,417
2018-12-10T06:11:01.700Z,418
2018-12-10T06:12:08.641Z,418
2018-12-10T06:13:15.843Z,417
2018-12-10T06:14:23.043Z,417
2018-12-10T06:15:30.250Z,417
2018-12-10T06:16:37.460Z,416
2018-12-10T06:17:44.667Z,417
2018-12-10T06:18:51.874Z,415
2018-12-10T06:19:58.523Z,416
2018-12-10T06:21:05.747Z,415
2018-12-10T06:22:12.944Z,416
2018-12-10T06:23:20.146Z,415
2018-12-10T06:24:27.342Z,416
2018-12-10T06:25:34.307Z,416
2018-12-10T06:26:41.507Z,416
2018-12-10T06:27:48.435Z,415
2018-12-10T06:28:55.099Z,415
2018-12-10T06:30:02.314Z,416
2018-12-10T06:31:09.511Z,415
2018-12-10T06:32:16.712Z,416
2018-12-10T06:33:23.924Z,416
2018-12-10T06:34:31.135Z,416
2018-12-10T06:35:38.074Z,415
2018-12-10T06:36:45.282Z,415
2018-12-10T06:37:52.481Z,417
2018-12-10T06:38:59.699Z,415
2018-12-10T06:40:06.904Z,416
2018-12-10T06:41:14.301Z,415
2018-12-10T06:42:21.506Z,416
2018-12-10T06:43:28.722Z,415
2018-12-10T06:44:35.914Z,415
2018-12-10T06:45:43.132Z,416
2018-12-10T06:46:50.330Z,415
2018-12-10T06:47:59.379Z,415
2018-12-10T06:49:06.598Z,415
2018-12-10T06:50:13.780Z,416
2018-12-10T06:51:20.710Z,416
2018-12-10T06:52:27.657Z,416
2018-12-10T06:53:34.858Z,417
2018-12-10T06:54:42.069Z,419
2018-12-10T06:55:49.004Z,419
2018-12-10T06:56:56.218Z,418
2018-12-10T06:58:03.153Z,419
2018-12-10T06:59:10.093Z,419
2018-12-10T07:00:17.293Z,419
2018-12-10T07:01:24.236Z,419
2018-12-10T07:02:31.435Z,418
2018-12-10T07:03:38.374Z,419
2018-12-10T07:04:45.579Z,420
2018-12-10T07:05:52.789Z,419
2018-12-10T07:06:59.989Z,419
2018-12-10T07:08:07.203Z,417
2018-12-10T07:09:14.407Z,419
2018-12-10T07:10:21.402Z,419
2018-12-10T07:11:28.605Z,419
2018-12-10T07:12:35.563Z,420
2018-12-10T07:13:42.778Z,419
2018-12-10T07:14:49.717Z,419
2018-12-10T07:15:56.643Z,418
2018-12-10T07:17:03.859Z,418
2018-12-10T07:18:11.056Z,419
2018-12-10T07:19:18.275Z,418
2018-12-10T07:20:25.482Z,417
2018-12-10T07:21:32.423Z,416
2018-12-10T07:22:39.629Z,416
2018-12-10T07:23:46.850Z,417
2018-12-10T07:24:54.051Z,417
2018-12-10T07:26:00.738Z,417
2018-12-10T07:27:07.944Z,416
2018-12-10T07:28:14.895Z,416
2018-12-10T07:29:22.096Z,415
2018-12-10T07:30:29.043Z,416
2018-12-10T07:31:35.962Z,415
2018-12-10T07:32:43.177Z,414
2018-12-10T07:33:50.120Z,415
2018-12-10T07:34:57.401Z,415
2018-12-10T07:36:04.593Z,414
2018-12-10T07:37:11.792Z,414
2018-12-10T07:38:19.002Z,414
2018-12-10T07:39:26.218Z,414
2018-12-10T07:40:33.428Z,414
2018-12-10T07:41:40.369Z,414
2018-12-10T07:42:47.303Z,414
2018-12-10T07:43:54.527Z,413
2018-12-10T07:45:01.727Z,413
2018-12-10T07:46:08.956Z,413
2018-12-10T07:47:16.153Z,412
2018-12-10T07:48:23.121Z,412
2018-12-10T07:49:29.778Z,413
2018-12-10T07:50:37.009Z,413
2018-12-10T07:51:44.210Z,414
2018-12-10T07:52:51.217Z,414
2018-12-10T07:53:58.415Z,412
2018-12-10T07:55:05.633Z,414
2018-12-10T07:56:12.842Z,415
2018-12-10T07:57:20.096Z,415
2018-12-10T07:58:27.293Z,414
2018-12-10T07:59:34.497Z,414
2018-12-10T08:00:41.697Z,414
2018-12-10T08:01:48.934Z,414
2018-12-10T08:02:56.210Z,414
2018-12-10T08:04:03.147Z,415
2018-12-10T08:05:13.572Z,415
2018-12-10T08:06:20.788Z,414
2018-12-10T08:07:27.722Z,413
2018-12-10T08:08:34.920Z,413
2018-12-10T08:09:42.129Z,413
2018-12-10T08:10:48.797Z,411
2018-12-10T08:11:55.998Z,411
2018-12-10T08:13:03.210Z,412
2018-12-10T08:14:10.407Z,413
2018-12-10T08:15:17.622Z,411
2018-12-10T08:16:24.825Z,411
2018-12-10T08:17:31.753Z,412
2018-12-10T08:18:38.961Z,411
2018-12-10T08:19:46.176Z,411
2018-12-10T08:21:01.890Z,411
2018-12-10T08:22:09.255Z,412
2018-12-10T08:23:16.471Z,410
2018-12-10T08:24:23.688Z,409
2018-12-10T08:25:30.885Z,410
2018-12-10T08:26:38.116Z,410
2018-12-10T08:27:45.324Z,409
2018-12-10T08:31:07.742Z,408
2018-12-10T08:32:14.944Z,407
2018-12-10T08:33:22.164Z,408
2018-12-10T08:34:29.370Z,408
2018-12-10T08:37:41.624Z,407
2018-12-10T08:38:48.824Z,409
2018-12-10T08:39:55.772Z,409
2018-12-10T08:41:02.969Z,410
2018-12-10T08:42:10.186Z,411
2018-12-10T08:43:17.393Z,412
2018-12-10T08:44:24.602Z,410
2018-12-10T08:45:31.518Z,409
2018-12-10T08:46:38.737Z,409
2018-12-10T08:47:45.942Z,409
2018-12-10T08:48:53.153Z,410
2018-12-10T08:50:00.364Z,409
2018-12-10T08:51:08.061Z,410
2018-12-10T08:52:15.409Z,409
2018-12-10T08:53:22.603Z,408
2018-12-10T08:54:29.533Z,405
2018-12-10T08:55:36.837Z,403
2018-12-10T08:56:43.770Z,403
2018-12-10T08:57:50.725Z,403
2018-12-10T08:58:57.920Z,405
2018-12-10T09:00:05.165Z,406
2018-12-10T09:01:12.528Z,405
2018-12-10T09:02:19.470Z,406
2018-12-10T09:03:26.668Z,407
2018-12-10T09:04:33.339Z,407
2018-12-10T09:05:40.541Z,408
2018-12-10T09:06:47.979Z,406
2018-12-10T09:07:54.916Z,407
2018-12-10T09:09:01.862Z,408
2018-12-10T09:10:08.789Z,407
2018-12-10T09:11:16.002Z,406
2018-12-10T09:12:22.928Z,407
2018-12-10T09:13:30.176Z,407
2018-12-10T09:14:37.381Z,407
2018-12-10T09:15:44.608Z,406
2018-12-10T09:16:51.808Z,406
2018-12-10T09:17:58.749Z,405
2018-12-10T09:19:05.950Z,407
2018-12-10T09:20:12.895Z,406
2018-12-10T09:21:20.114Z,407
2018-12-10T09:22:27.293Z,407
2018-12-10T09:23:34.218Z,407
2018-12-10T09:24:41.507Z,407
2018-12-10T09:25:48.711Z,407
2018-12-10T09:26:55.931Z,408
2018-12-10T09:28:03.127Z,408
2018-12-10T09:29:10.353Z,407
2018-12-10T09:30:17.557Z,406
2018-12-10T09:31:24.786Z,405
2018-12-10T09:32:31.987Z,404
2018-12-10T09:33:39.205Z,403
2018-12-10T09:34:46.411Z,402
2018-12-10T09:35:53.724Z,402
2018-12-10T09:37:00.912Z,403
2018-12-10T09:38:08.133Z,405
2018-12-10T09:39:15.343Z,406
2018-12-10T09:40:22.548Z,407
2018-12-10T09:41:29.201Z,408
2018-12-10T09:42:36.417Z,409
2018-12-10T09:43:43.624Z,408
2018-12-10T09:44:50.563Z,408
2018-12-10T09:45:57.761Z,407
2018-12-10T09:47:04.697Z,407
2018-12-10T09:48:11.900Z,407
2018-12-10T09:49:18.825Z,408
2018-12-10T09:50:26.023Z,407
2018-12-10T09:51:33.240Z,408
2018-12-10T09:52:40.447Z,408
2018-12-10T09:53:47.779Z,408
2018-12-10T09:54:54.980Z,405
2018-12-10T09:56:02.194Z,403
2018-12-10T09:57:09.122Z,399
2018-12-10T09:58:16.343Z,399
2018-12-10T09:59:23.292Z,398
2018-12-10T10:00:29.977Z,399
2018-12-10T10:01:37.185Z,401
2018-12-10T10:02:44.389Z,400
2018-12-10T10:03:51.586Z,400
2018-12-10T10:04:58.814Z,399
2018-12-10T10:06:06.020Z,399
2018-12-10T10:07:13.257Z,399
2018-12-10T10:08:20.462Z,400
2018-12-10T10:09:27.156Z,399
2018-12-10T10:10:34.171Z,400
2018-12-10T10:11:41.096Z,397
2018-12-10T10:12:48.040Z,394
2018-12-10T10:13:55.268Z,396
2018-12-10T10:15:02.469Z,396
2018-12-10T10:16:09.688Z,398
2018-12-10T10:17:16.901Z,398
2018-12-10T10:18:24.124Z,398
2018-12-10T10:19:31.324Z,400
2018-12-10T10:20:38.590Z,401
2018-12-10T10:21:45.964Z,403
2018-12-10T10:22:53.182Z,403
2018-12-10T10:24:00.596Z,403
2018-12-10T10:25:07.528Z,403
2018-12-10T10:26:14.745Z,404
2018-12-10T10:27:21.687Z,405
2018-12-10T10:28:28.898Z,405
2018-12-10T10:29:36.106Z,406
2018-12-10T10:30:45.082Z,405
2018-12-10T10:31:52.307Z,405
2018-12-10T10:32:59.236Z,404
2018-12-10T10:34:06.448Z,405
2018-12-10T10:35:13.379Z,406
2018-12-10T10:36:20.601Z,405
2018-12-10T10:37:27.817Z,404
2018-12-10T10:38:35.020Z,404
2018-12-10T10:39:42.213Z,404
2018-12-10T10:40:49.160Z,405
2018-12-10T10:41:58.410Z,406
2018-12-10T10:43:05.623Z,406
2018-12-10T10:44:12.828Z,406
2018-12-10T10:45:20.046Z,405
2018-12-10T10:46:27.246Z,405
2018-12-10T10:47:34.178Z,406
2018-12-10T10:48:41.381Z,405
2018-12-10T10:49:48.594Z,404
2018-12-10T10:50:55.801Z,404
2018-12-10T10:52:02.821Z,403
2018-12-10T10:53:10.023Z,399
2018-12-10T10:54:17.229Z,396
2018-12-10T10:55:24.442Z,397
2018-12-10T10:56:31.637Z,400
2018-12-10T10:57:38.559Z,402
2018-12-10T10:58:45.782Z,403
2018-12-10T10:59:52.988Z,405
2018-12-10T11:00:59.658Z,407
2018-12-10T11:02:06.859Z,408
2018-12-10T11:03:14.078Z,403
2018-12-10T11:04:21.288Z,397
2018-12-10T11:05:28.213Z,393
2018-12-10T11:06:35.413Z,388
2018-12-10T11:07:42.620Z,387
2018-12-10T11:08:49.829Z,387
2018-12-10T11:09:56.775Z,384
2018-12-10T11:11:03.977Z,392
2018-12-10T11:12:11.188Z,397
2018-12-10T11:13:18.391Z,398
2018-12-10T11:14:25.602Z,399
2018-12-10T11:15:32.543Z,397
2018-12-10T11:16:39.744Z,398
2018-12-10T11:17:46.936Z,399
2018-12-10T11:18:54.160Z,401
2018-12-10T11:20:01.372Z,402
2018-12-10T11:21:08.578Z,404
2018-12-10T11:22:15.776Z,405
2018-12-10T11:23:22.989Z,406
2018-12-10T11:24:30.236Z,406
2018-12-10T11:25:37.421Z,407
2018-12-10T11:26:44.628Z,406
2018-12-10T11:27:51.850Z,406
2018-12-10T11:28:59.052Z,400
2018-12-10T11:30:05.985Z,398
2018-12-10T11:31:18.174Z,393
2018-12-10T11:32:25.410Z,389
2018-12-10T11:33:32.346Z,387
2018-12-10T11:34:39.275Z,391
2018-12-10T11:35:46.474Z,394
2018-12-10T11:36:53.688Z,396
2018-12-10T11:38:00.889Z,399
2018-12-10T11:39:08.118Z,398
2018-12-10T11:40:15.048Z,399
2018-12-10T11:41:22.078Z,399
2018-12-10T11:42:29.291Z,399
2018-12-10T11:43:36.489Z,399
2018-12-10T11:44:43.417Z,399
2018-12-10T11:45:50.644Z,401
2018-12-10T11:46:57.859Z,400
2018-12-10T11:48:05.084Z,399
2018-12-10T11:49:12.292Z,398
2018-12-10T11:50:20.021Z,397
2018-12-10T11:51:27.175Z,397
2018-12-10T11:52:34.124Z,399
2018-12-10T11:53:41.318Z,398
2018-12-10T11:54:48.541Z,398
2018-12-10T11:55:55.736Z,397
2018-12-10T11:57:02.686Z,397
2018-12-10T11:58:09.888Z,398
2018-12-10T11:59:17.112Z,398
2018-12-10T12:00:24.320Z,398
2018-12-10T12:01:31.609Z,399
2018-12-10T12:02:38.537Z,399
2018-12-10T12:03:45.475Z,391
2018-12-10T12:04:52.681Z,393
2018-12-10T12:05:59.888Z,396
2018-12-10T12:07:06.834Z,394
2018-12-10T12:08:13.781Z,395
2018-12-10T12:09:20.988Z,397
2018-12-10T12:10:27.938Z,399
2018-12-10T12:11:35.132Z,394
2018-12-10T12:12:42.093Z,391
2018-12-10T12:13:49.294Z,387
2018-12-10T12:14:56.235Z,391
2018-12-10T12:16:03.171Z,394
2018-12-10T12:17:10.399Z,395
2018-12-10T12:18:17.594Z,395
2018-12-10T12:19:24.826Z,392
2018-12-10T12:20:32.037Z,388
2018-12-10T12:21:39.328Z,389
2018-12-10T12:22:46.532Z,393
2018-12-10T12:23:53.741Z,393
2018-12-10T12:25:00.655Z,385
2018-12-10T12:26:07.623Z,379
2018-12-10T12:27:14.833Z,377
2018-12-10T12:28:21.784Z,375
2018-12-10T12:29:28.985Z,379
2018-12-10T12:30:36.227Z,383
2018-12-10T12:31:43.434Z,383
2018-12-10T12:32:50.636Z,384
2018-12-10T12:33:57.843Z,383
2018-12-10T12:35:05.068Z,384
2018-12-10T12:36:11.998Z,392
2018-12-10T12:37:19.213Z,387
2018-12-10T12:38:26.157Z,384
2018-12-10T12:39:33.115Z,387
2018-12-10T12:40:40.053Z,390
2018-12-10T12:41:47.250Z,396
2018-12-10T12:42:54.876Z,398
2018-12-10T12:44:01.824Z,399
2018-12-10T12:45:09.040Z,399
2018-12-10T12:46:15.988Z,399
2018-12-10T12:47:22.915Z,400
2018-12-10T12:48:30.135Z,401
2018-12-10T12:49:36.789Z,400
2018-12-10T12:50:43.993Z,402
2018-12-10T12:51:51.200Z,418
2018-12-10T12:52:58.147Z,419
2018-12-10T12:54:05.350Z,415
2018-12-10T12:55:12.302Z,412
2018-12-10T12:56:19.508Z,414
2018-12-10T12:57:26.461Z,414
2018-12-10T12:58:33.667Z,420
2018-12-10T12:59:40.883Z,425
2018-12-10T13:00:48.091Z,432
2018-12-10T13:01:54.773Z,435
2018-12-10T13:03:01.711Z,439
2018-12-10T13:04:08.948Z,442
2018-12-10T13:05:16.138Z,445
2018-12-10T13:06:23.365Z,446
2018-12-10T13:07:30.577Z,445
2018-12-10T13:08:37.518Z,443
2018-12-10T13:09:44.718Z,442
2018-12-10T13:10:51.918Z,442
2018-12-10T13:11:59.120Z,440
2018-12-10T13:13:06.343Z,438
2018-12-10T13:14:13.538Z,436
2018-12-10T13:15:20.825Z,434
2018-12-10T13:16:28.010Z,434
2018-12-10T13:17:35.234Z,434
2018-12-10T13:18:42.433Z,434
2018-12-10T13:19:49.653Z,431
2018-12-10T13:20:56.867Z,431
2018-12-10T13:22:04.095Z,427
2018-12-10T13:23:11.296Z,423
2018-12-10T13:24:18.529Z,420
2018-12-10T13:25:25.730Z,419
2018-12-10T13:26:32.672Z,416
2018-12-10T13:27:39.873Z,414
2018-12-10T13:28:47.189Z,414
2018-12-10T13:29:54.398Z,414
2018-12-10T13:31:01.071Z,413
2018-12-10T13:32:08.279Z,413
2018-12-10T13:33:15.522Z,411
2018-12-10T13:34:22.730Z,411
2018-12-10T13:35:29.957Z,410
2018-12-10T13:36:37.157Z,412
2018-12-10T13:37:47.021Z,411
2018-12-10T13:38:54.233Z,412
2018-12-10T13:40:01.187Z,412
2018-12-10T13:41:08.108Z,413
2018-12-10T13:42:15.325Z,412
2018-12-10T13:43:22.533Z,411
2018-12-10T13:44:29.748Z,410
2018-12-10T13:45:36.948Z,411
2018-12-10T13:46:44.156Z,409
2018-12-10T13:47:51.093Z,411
2018-12-10T13:48:58.315Z,410
2018-12-10T13:50:05.245Z,411
2018-12-10T13:51:11.916Z,409
2018-12-10T13:52:19.121Z,408
2018-12-10T13:53:26.351Z,406
2018-12-10T13:54:33.574Z,407
2018-12-10T13:55:40.777Z,409
2018-12-10T13:56:47.985Z,409
2018-12-10T13:57:55.206Z,408
2018-12-10T13:59:02.413Z,407
2018-12-10T14:00:09.626Z,406
2018-12-10T14:01:16.566Z,407
2018-12-10T14:02:23.785Z,409
2018-12-10T14:03:30.992Z,409
2018-12-10T14:04:37.918Z,412
2018-12-10T14:05:48.614Z,412
2018-12-10T14:06:55.837Z,413
2018-12-10T14:08:02.820Z,412
2018-12-10T14:09:10.041Z,412
2018-12-10T14:10:17.256Z,436
2018-12-10T14:11:24.487Z,438
2018-12-10T14:12:31.691Z,438
2018-12-10T14:13:38.892Z,437
2018-12-10T14:14:46.103Z,437
2018-12-10T14:15:53.059Z,436
2018-12-10T14:17:00.260Z,437
2018-12-10T14:18:07.208Z,437
2018-12-10T14:19:14.418Z,436
2018-12-10T14:20:21.633Z,434
2018-12-10T14:21:28.305Z,434
2018-12-10T14:22:35.523Z,434
2018-12-10T14:23:42.728Z,437
2018-12-10T14:24:49.672Z,437
2018-12-10T14:25:56.881Z,439
2018-12-10T14:27:03.812Z,440
2018-12-10T14:28:11.018Z,440
2018-12-10T14:29:17.688Z,439
2018-12-10T14:30:24.635Z,438
2018-12-10T14:31:31.586Z,438
2018-12-10T14:32:38.782Z,434
2018-12-10T14:33:45.729Z,435
2018-12-10T14:34:52.944Z,434
2018-12-10T14:36:00.156Z,434
2018-12-10T14:37:07.360Z,436
2018-12-10T14:38:14.313Z,432
2018-12-10T14:39:21.523Z,431
2018-12-10T14:40:28.485Z,433
2018-12-10T14:41:35.422Z,432
2018-12-10T14:42:42.641Z,432
2018-12-10T14:43:49.582Z,428
2018-12-10T14:44:56.786Z,423
2018-12-10T14:46:03.995Z,430
2018-12-10T14:47:11.202Z,434
2018-12-10T14:48:18.400Z,433
2018-12-10T14:49:25.624Z,433
2018-12-10T14:50:32.823Z,432
2018-12-10T14:51:40.707Z,425
2018-12-10T14:52:47.948Z,425
2018-12-10T14:53:55.140Z,426
2018-12-10T14:55:02.343Z,428
2018-12-10T14:56:09.564Z,430
2018-12-10T14:57:17.922Z,433
2018-12-10T14:58:25.178Z,435
2018-12-10T14:59:32.432Z,434
2018-12-10T15:00:39.130Z,434
2018-12-10T15:01:46.063Z,435
2018-12-10T15:02:52.708Z,436
2018-12-10T15:03:59.925Z,435
2018-12-10T15:05:06.859Z,434
2018-12-10T15:06:14.063Z,431
2018-12-10T15:07:21.280Z,430
2018-12-10T15:08:29.124Z,427
2018-12-10T15:09:36.358Z,427
2018-12-10T15:10:43.557Z,426
2018-12-10T15:11:50.769Z,423
2018-12-10T15:12:57.981Z,421
2018-12-10T15:14:04.953Z,418
2018-12-10T15:15:12.155Z,414
2018-12-10T15:16:19.092Z,411
2018-12-10T15:17:26.308Z,408
2018-12-10T15:18:33.523Z,404
2018-12-10T15:19:40.731Z,404
2018-12-10T15:20:47.988Z,403
2018-12-10T15:21:55.185Z,406
2018-12-10T15:23:02.380Z,403
2018-12-10T15:24:09.584Z,403
2018-12-10T15:25:16.524Z,403
2018-12-10T15:26:23.728Z,403
2018-12-10T15:27:30.956Z,403
2018-12-10T15:28:37.899Z,403
2018-12-10T15:29:44.849Z,409